Time;durP1;ratioP1;P1;durP2;ratioP2;P2;SDS_P1;SDS_P2;PMS_P1;PMS_P2;Temp;Humidity;BMP_temperature;BMP_pressure;BME280_temperature;BME280_humidity;BME280_pressure;Samples;Min_cycle;Max_cycle;Signal;HPM_P1;HPM_P2
2023/03/07 00:00:43;;;;;;;12.60;3.72;;;4.00;99.90;;;;;;5090337;28;20143;-73
2023/03/07 00:03:14;;;;;;;6.20;2.47;;;4.00;99.90;;;;;;5090973;28;20035;-73
2023/03/07 00:05:40;;;;;;;9.88;2.25;;;4.00;99.90;;;;;;5090652;28;20074;-73
2023/03/07 00:08:06;;;;;;;5.90;2.38;;;4.00;99.90;;;;;;5091021;28;20519;-73
2023/03/07 00:10:32;;;;;;;5.75;1.90;;;4.00;99.90;;;;;;5090279;28;20119;-74
2023/03/07 00:12:57;;;;;;;10.15;2.08;;;4.00;99.90;;;;;;5091012;28;20032;-74
2023/03/07 00:15:23;;;;;;;7.45;2.30;;;3.90;99.90;;;;;;5090659;28;20043;-75
2023/03/07 00:17:49;;;;;;;7.07;2.60;;;4.00;99.90;;;;;;5090360;28;20024;-73
2023/03/07 00:20:14;;;;;;;7.07;2.33;;;4.00;99.90;;;;;;5090711;28;20382;-74
2023/03/07 00:22:42;;;;;;;9.68;2.33;;;4.00;99.90;;;;;;5089983;28;20112;-73
2023/03/07 00:25:09;;;;;;;6.00;2.20;;;3.90;99.90;;;;;;5090486;28;20055;-72
2023/03/07 00:27:35;;;;;;;8.88;2.42;;;3.90;99.90;;;;;;5088535;28;20084;-73
2023/03/07 00:30:03;;;;;;;7.60;4.75;;;4.00;99.90;;;;;;5090410;28;20039;-73
2023/03/07 00:32:29;;;;;;;9.98;2.92;;;3.90;99.90;;;;;;5089899;28;20375;-73
2023/03/07 00:34:56;;;;;;;6.40;2.10;;;3.90;99.90;;;;;;5090703;28;20020;-73
2023/03/07 00:37:22;;;;;;;7.65;2.25;;;3.80;99.90;;;;;;5090819;28;20114;-73
2023/03/07 00:39:47;;;;;;;6.80;2.55;;;3.80;99.90;;;;;;5090135;28;20032;-73
2023/03/07 00:42:14;;;;;;;6.38;2.10;;;3.80;99.90;;;;;;5091024;28;20024;-73
2023/03/07 00:44:39;;;;;;;5.20;2.15;;;3.80;99.90;;;;;;5089989;28;20378;-74
2023/03/07 00:47:05;;;;;;;4.38;1.88;;;3.80;99.90;;;;;;5091131;28;20039;-73
2023/03/07 00:49:31;;;;;;;7.53;2.70;;;3.70;99.90;;;;;;5089670;28;20374;-73
2023/03/07 00:51:57;;;;;;;8.38;2.50;;;3.70;99.90;;;;;;5090297;28;20028;-73
2023/03/07 00:54:23;;;;;;;7.75;2.78;;;3.70;99.90;;;;;;5090257;28;20032;-73
2023/03/07 00:56:48;;;;;;;7.50;3.58;;;3.70;99.90;;;;;;5089540;28;20471;-73
2023/03/07 00:59:14;;;;;;;8.10;3.03;;;3.60;99.90;;;;;;5090245;28;20035;-74
2023/03/07 01:01:40;;;;;;;7.85;2.80;;;3.60;99.90;;;;;;5088649;28;20031;-73
2023/03/07 01:04:06;;;;;;;7.68;2.95;;;3.60;99.90;;;;;;5090044;28;20024;-73
2023/03/07 01:06:33;;;;;;;6.32;2.60;;;3.60;99.90;;;;;;5089645;28;20107;-73
2023/03/07 01:09:03;;;;;;;7.50;2.42;;;3.50;99.90;;;;;;5089785;28;20375;-73
2023/03/07 01:11:29;;;;;;;8.30;2.58;;;3.50;99.90;;;;;;5071222;28;20124;-74
2023/03/07 01:14:00;;;;;;;10.77;3.00;;;3.50;99.90;;;;;;5090116;28;20027;-74
2023/03/07 01:16:29;;;;;;;5.07;2.33;;;3.50;99.90;;;;;;5089689;28;20092;-78
2023/03/07 01:19:01;;;;;;;9.80;2.95;;;3.50;99.90;;;;;;5089921;28;20107;-73
2023/03/07 01:21:36;;;;;;;9.20;2.38;;;3.50;99.90;;;;;;5089503;28;20039;-76
2023/03/07 01:24:03;;;;;;;4.97;1.80;;;3.40;99.90;;;;;;5089545;28;20052;-73
2023/03/07 01:26:30;;;;;;;7.75;2.53;;;3.50;99.90;;;;;;5089609;28;20028;-73
2023/03/07 01:28:59;;;;;;;9.75;2.70;;;3.50;99.90;;;;;;5090095;28;20028;-73
2023/03/07 01:31:25;;;;;;;8.30;2.65;;;3.50;99.90;;;;;;5087989;28;20342;-72
2023/03/07 01:33:52;;;;;;;4.43;2.10;;;3.40;99.90;;;;;;5089745;28;20024;-75
2023/03/07 01:36:27;;;;;;;7.65;2.30;;;3.40;99.90;;;;;;5089780;28;20486;-73
2023/03/07 01:39:02;;;;;;;7.82;2.40;;;3.40;99.90;;;;;;5089576;28;20156;-74
2023/03/07 01:41:31;;;;;;;8.88;2.38;;;3.30;99.90;;;;;;5089479;28;20043;-77
2023/03/07 01:44:04;;;;;;;10.38;2.30;;;3.30;99.90;;;;;;5089666;28;20107;-72
2023/03/07 01:46:45;;;;;;;5.10;1.73;;;3.30;99.90;;;;;;5089648;28;20141;-73
2023/03/07 01:49:32;;;;;;;7.05;2.05;;;3.30;99.90;;;;;;5089569;28;20352;-77
2023/03/07 01:52:10;;;;;;;7.57;2.33;;;3.30;99.90;;;;;;5082695;28;20059;-73
2023/03/07 01:54:39;;;;;;;8.90;1.80;;;3.30;99.90;;;;;;5089573;28;20039;-73
2023/03/07 01:57:05;;;;;;;8.10;2.10;;;3.30;99.90;;;;;;5089821;28;20024;-73
2023/03/07 01:59:43;;;;;;;8.00;2.20;;;3.30;99.90;;;;;;5089057;28;20031;-74
2023/03/07 02:02:13;;;;;;;6.18;2.53;;;3.30;99.90;;;;;;5089785;28;20503;-73
2023/03/07 02:04:59;;;;;;;4.78;1.60;;;3.30;99.90;;;;;;5089353;28;20107;-74
2023/03/07 02:07:30;;;;;;;5.82;1.95;;;3.20;99.90;;;;;;5089962;28;20406;-73
2023/03/07 02:09:56;;;;;;;6.70;1.95;;;3.20;99.90;;;;;;5089472;28;20028;-73
2023/03/07 02:12:23;;;;;;;7.93;2.20;;;3.10;99.90;;;;;;5090062;28;20028;-73
2023/03/07 02:14:49;;;;;;;7.03;2.00;;;3.20;99.90;;;;;;5089113;28;20072;-73
2023/03/07 02:17:16;;;;;;;6.40;1.98;;;3.20;99.90;;;;;;5089692;28;20376;-73
2023/03/07 02:19:59;;;;;;;6.25;1.67;;;3.10;99.90;;;;;;5090228;28;20032;-73
2023/03/07 02:22:26;;;;;;;7.03;2.28;;;3.20;99.90;;;;;;5093755;28;20121;-77
2023/03/07 02:25:01;;;;;;;8.68;2.17;;;3.10;99.90;;;;;;5093455;28;20066;-74
2023/03/07 02:27:30;;;;;;;6.35;2.20;;;3.00;99.90;;;;;;5093812;28;20028;-77
2023/03/07 02:29:56;;;;;;;7.95;1.90;;;3.00;99.90;;;;;;5094508;28;20097;-73
2023/03/07 02:32:22;;;;;;;5.40;1.75;;;2.90;99.90;;;;;;5094028;28;20425;-74
2023/03/07 02:34:47;;;;;;;8.15;1.98;;;2.90;99.90;;;;;;5092027;28;20028;-73
2023/03/07 02:37:20;;;;;;;5.32;1.58;;;2.90;99.90;;;;;;5094100;28;20378;-72
2023/03/07 02:39:47;;;;;;;7.47;2.17;;;2.80;99.90;;;;;;5092405;28;20121;-74
2023/03/07 02:42:21;;;;;;;5.80;1.80;;;2.80;99.90;;;;;;5093186;28;20474;-72
2023/03/07 02:44:56;;;;;;;6.10;2.03;;;2.80;99.90;;;;;;5093059;28;20300;-73
2023/03/07 02:47:21;;;;;;;6.07;1.60;;;2.80;99.90;;;;;;5093425;28;20137;-73
2023/03/07 02:49:47;;;;;;;4.63;1.60;;;2.70;99.90;;;;;;5090864;28;20092;-73
2023/03/07 02:52:13;;;;;;;9.27;2.05;;;2.80;99.90;;;;;;5093372;28;20074;-73
2023/03/07 02:54:38;;;;;;;8.50;2.08;;;2.70;99.90;;;;;;5092315;28;20031;-74
2023/03/07 02:57:04;;;;;;;8.63;1.60;;;2.70;99.90;;;;;;5093184;28;20042;-74
2023/03/07 02:59:30;;;;;;;11.13;2.20;;;2.70;99.90;;;;;;5092475;28;20073;-76
2023/03/07 03:01:57;;;;;;;6.82;2.40;;;2.70;99.90;;;;;;5093037;28;20028;-72
2023/03/07 03:04:22;;;;;;;14.13;2.17;;;2.70;99.90;;;;;;5092777;28;20052;-72
2023/03/07 03:06:48;;;;;;;6.28;2.28;;;2.60;99.90;;;;;;5092629;28;20403;-73
2023/03/07 03:09:15;;;;;;;9.35;2.00;;;2.60;99.90;;;;;;5092855;28;20039;-73
2023/03/07 03:11:40;;;;;;;7.53;2.17;;;2.70;99.90;;;;;;5092011;28;20036;-73
2023/03/07 03:14:06;;;;;;;6.30;1.88;;;2.60;99.90;;;;;;5093044;28;20028;-73
2023/03/07 03:16:32;;;;;;;7.00;1.90;;;2.60;99.90;;;;;;5091264;28;20024;-77
2023/03/07 03:18:59;;;;;;;6.45;1.95;;;2.50;99.90;;;;;;5092695;28;20451;-74
2023/03/07 03:21:25;;;;;;;5.78;1.80;;;2.50;99.90;;;;;;5092731;28;20056;-73
2023/03/07 03:23:50;;;;;;;10.27;2.58;;;2.50;99.90;;;;;;5091771;28;20918;-74
2023/03/07 03:26:18;;;;;;;10.45;2.25;;;2.50;99.90;;;;;;5091018;28;20524;-73
2023/03/07 03:28:44;;;;;;;8.50;2.00;;;2.50;99.90;;;;;;5091461;28;20032;-73
2023/03/07 03:31:14;;;;;;;7.15;2.10;;;2.40;99.90;;;;;;5092207;28;20107;-73
2023/03/07 03:33:42;;;;;;;4.75;2.10;;;2.40;99.90;;;;;;5090605;28;20386;-74
2023/03/07 03:36:11;;;;;;;5.80;2.00;;;2.40;99.90;;;;;;5092137;28;20023;-74
2023/03/07 03:38:38;;;;;;;9.25;2.17;;;2.30;99.90;;;;;;5091438;28;20108;-74
2023/03/07 03:41:09;;;;;;;4.22;1.85;;;2.30;99.90;;;;;;5092487;28;20062;-74
2023/03/07 03:43:35;;;;;;;5.78;1.80;;;2.30;99.90;;;;;;5091160;28;20027;-75
2023/03/07 03:46:02;;;;;;;8.20;2.00;;;2.20;99.90;;;;;;5092238;28;20024;-74
2023/03/07 03:48:28;;;;;;;6.38;2.28;;;2.20;99.90;;;;;;5091933;28;20131;-73
2023/03/07 03:51:09;;;;;;;6.68;1.85;;;2.10;99.90;;;;;;5091399;28;20093;-73
2023/03/07 03:53:37;;;;;;;7.40;2.28;;;2.10;99.90;;;;;;5091622;28;20032;-76
2023/03/07 03:56:08;;;;;;;5.47;1.60;;;2.10;99.90;;;;;;5092256;28;20035;-73
2023/03/07 03:58:34;;;;;;;9.38;2.05;;;2.00;99.90;;;;;;5091313;28;20024;-76
2023/03/07 04:01:04;;;;;;;6.50;1.67;;;2.00;99.90;;;;;;5090115;28;20105;-74
2023/03/07 04:03:32;;;;;;;6.88;2.50;;;1.90;99.90;;;;;;5091442;28;20028;-73
2023/03/07 04:06:06;;;;;;;6.93;2.55;;;1.90;99.90;;;;;;5091146;28;20356;-73
2023/03/07 04:08:33;;;;;;;7.40;2.10;;;1.90;99.90;;;;;;5091305;28;20028;-73
2023/03/07 04:10:59;;;;;;;8.40;2.50;;;1.90;99.90;;;;;;5089680;28;20024;-73
2023/03/07 04:13:26;;;;;;;6.30;1.75;;;1.90;99.90;;;;;;5091346;28;20459;-72
2023/03/07 04:15:53;;;;;;;11.38;2.30;;;1.80;99.90;;;;;;5091003;28;20460;-74
2023/03/07 04:18:19;;;;;;;7.57;2.08;;;1.80;99.90;;;;;;5091740;28;20024;-74
2023/03/07 04:20:47;;;;;;;11.77;2.78;;;1.80;99.90;;;;;;5090921;28;20085;-74
2023/03/07 04:23:13;;;;;;;5.07;1.75;;;1.80;99.90;;;;;;5091462;28;20020;-74
2023/03/07 04:25:38;;;;;;;7.97;2.17;;;1.80;99.90;;;;;;5090410;28;20119;-73
2023/03/07 04:28:04;;;;;;;6.22;2.17;;;1.80;99.90;;;;;;5091426;28;20043;-73
2023/03/07 04:30:30;;;;;;;7.72;2.17;;;1.70;99.90;;;;;;5090913;28;20089;-73
2023/03/07 04:32:56;;;;;;;3.72;1.88;;;1.70;99.90;;;;;;5090638;28;20059;-73
2023/03/07 04:35:21;;;;;;;5.55;1.83;;;1.70;99.90;;;;;;5091276;28;20059;-73
2023/03/07 04:37:49;;;;;;;10.60;1.95;;;1.70;99.90;;;;;;5090551;28;20031;-74
2023/03/07 04:40:15;;;;;;;8.23;2.60;;;1.70;99.90;;;;;;5091105;28;20028;-73
2023/03/07 04:42:41;;;;;;;4.55;2.20;;;1.60;99.90;;;;;;5090226;28;20116;-74
2023/03/07 04:45:07;;;;;;;11.30;2.20;;;1.60;99.90;;;;;;5090913;28;20119;-73
2023/03/07 04:47:33;;;;;;;7.72;2.30;;;1.50;99.90;;;;;;5089566;28;20028;-73
2023/03/07 04:49:58;;;;;;;6.80;2.35;;;1.50;99.90;;;;;;5090413;28;20038;-73
2023/03/07 04:52:24;;;;;;;8.07;2.40;;;1.50;99.90;;;;;;5090563;28;20454;-74
2023/03/07 04:54:50;;;;;;;7.03;2.03;;;1.40;99.90;;;;;;5090405;28;20039;-74
2023/03/07 04:57:15;;;;;;;5.72;2.33;;;1.40;99.90;;;;;;5090828;28;20031;-74
2023/03/07 04:59:41;;;;;;;6.32;2.22;;;1.30;99.90;;;;;;5090321;28;20045;-74
2023/03/07 05:02:10;;;;;;;5.45;2.55;;;1.30;99.90;;;;;;5091097;28;20427;-73
2023/03/07 05:04:36;;;;;;;7.75;2.20;;;1.30;99.90;;;;;;5090999;28;20039;-74
2023/03/07 05:07:02;;;;;;;8.75;2.53;;;1.30;99.90;;;;;;5090418;28;20029;-74
2023/03/07 05:09:28;;;;;;;6.57;2.22;;;1.20;99.90;;;;;;5090994;28;20020;-74
2023/03/07 05:11:54;;;;;;;5.55;2.28;;;1.20;99.90;;;;;;5090318;28;20035;-74
2023/03/07 05:14:20;;;;;;;8.38;2.15;;;1.20;99.90;;;;;;5090804;28;20371;-74
2023/03/07 05:16:46;;;;;;;11.93;2.38;;;1.10;99.90;;;;;;5090432;28;20459;-74
2023/03/07 05:19:12;;;;;;;4.03;2.17;;;1.10;99.90;;;;;;5091032;28;20107;-74
2023/03/07 05:21:40;;;;;;;6.95;2.22;;;1.10;99.90;;;;;;5091708;28;20056;-74
2023/03/07 05:24:07;;;;;;;7.03;1.90;;;1.10;99.90;;;;;;5091091;28;20054;-74
2023/03/07 05:26:32;;;;;;;7.72;1.85;;;1.10;99.90;;;;;;5091559;28;20024;-73
2023/03/07 05:28:59;;;;;;;5.20;2.08;;;1.10;99.90;;;;;;5089638;28;20024;-74
2023/03/07 05:31:25;;;;;;;5.30;2.00;;;1.10;99.90;;;;;;5090912;28;20036;-73
2023/03/07 05:33:52;;;;;;;5.85;2.20;;;1.00;99.90;;;;;;5090326;28;20115;-73
2023/03/07 05:36:18;;;;;;;7.05;2.53;;;1.00;99.90;;;;;;5090602;28;20429;-74
2023/03/07 05:38:43;;;;;;;7.70;2.03;;;1.00;99.90;;;;;;5090007;28;20085;-73
2023/03/07 05:41:09;;;;;;;5.93;2.38;;;1.10;99.90;;;;;;5090801;28;20124;-74
2023/03/07 05:43:35;;;;;;;11.57;2.83;;;1.00;99.90;;;;;;5090872;28;20035;-73
2023/03/07 05:46:00;;;;;;;4.05;2.58;;;1.00;99.90;;;;;;5089976;28;20098;-74
2023/03/07 05:48:26;;;;;;;6.78;2.25;;;1.00;99.90;;;;;;5090555;28;20443;-74
2023/03/07 05:50:52;;;;;;;10.70;2.33;;;1.00;99.90;;;;;;5089864;28;20331;-73
2023/03/07 05:53:18;;;;;;;6.32;2.50;;;1.00;99.90;;;;;;5090785;28;20121;-74
2023/03/07 05:55:44;;;;;;;7.05;2.65;;;1.00;99.90;;;;;;5092124;28;20025;-77
2023/03/07 05:58:10;;;;;;;8.77;2.53;;;1.00;99.90;;;;;;5094304;28;20024;-74
2023/03/07 06:00:35;;;;;;;7.13;2.22;;;1.00;99.90;;;;;;5093997;28;20030;-74
2023/03/07 06:03:04;;;;;;;9.05;2.70;;;1.00;99.90;;;;;;5093564;28;20020;-73
2023/03/07 06:05:30;;;;;;;8.38;2.13;;;1.00;99.90;;;;;;5094186;28;20024;-74
2023/03/07 06:07:55;;;;;;;6.07;2.20;;;1.00;99.90;;;;;;5093210;28;20497;-73
2023/03/07 06:10:21;;;;;;;6.38;2.55;;;0.90;99.90;;;;;;5093930;28;20024;-74
2023/03/07 06:12:52;;;;;;;7.43;2.83;;;0.80;99.90;;;;;;5093392;28;20423;-74
2023/03/07 06:15:18;;;;;;;4.80;2.20;;;0.80;99.90;;;;;;5093639;28;20038;-74
2023/03/07 06:17:44;;;;;;;4.47;2.53;;;0.70;99.90;;;;;;5093296;28;20102;-77
2023/03/07 06:20:10;;;;;;;6.18;2.83;;;0.70;99.90;;;;;;5093300;28;20059;-74
2023/03/07 06:22:38;;;;;;;5.82;2.15;;;0.70;99.90;;;;;;5093520;28;20020;-74
2023/03/07 06:25:05;;;;;;;7.95;2.63;;;0.70;99.90;;;;;;5093382;28;20043;-74
2023/03/07 06:27:35;;;;;;;5.47;2.17;;;0.70;99.90;;;;;;5093798;28;20047;-73
2023/03/07 06:30:02;;;;;;;5.78;2.30;;;0.70;99.90;;;;;;5093129;28;20032;-74
2023/03/07 06:32:29;;;;;;;5.47;2.25;;;0.80;99.90;;;;;;5093825;28;20085;-73
2023/03/07 06:34:55;;;;;;;12.65;2.63;;;0.80;99.90;;;;;;5092747;28;20024;-74
2023/03/07 06:37:21;;;;;;;7.25;2.08;;;0.90;99.90;;;;;;5093274;28;20103;-73
2023/03/07 06:39:46;;;;;;;4.07;2.30;;;1.00;99.90;;;;;;5092927;28;20031;-77
2023/03/07 06:42:12;;;;;;;7.85;3.42;;;1.00;99.90;;;;;;5092915;28;20047;-73
2023/03/07 06:44:38;;;;;;;8.75;4.15;;;1.00;99.90;;;;;;5093465;28;20036;-74
2023/03/07 06:47:03;;;;;;;8.55;4.05;;;1.00;99.90;;;;;;5092820;28;20129;-74
2023/03/07 06:49:29;;;;;;;6.53;3.72;;;1.00;99.90;;;;;;5092812;28;20028;-73
2023/03/07 06:51:55;;;;;;;8.35;3.15;;;0.90;99.90;;;;;;5092499;28;20049;-74
2023/03/07 06:54:21;;;;;;;8.27;3.50;;;0.80;99.90;;;;;;5092750;28;20052;-72
2023/03/07 06:56:46;;;;;;;6.22;3.10;;;0.80;99.90;;;;;;5092574;28;20339;-76
2023/03/07 06:59:12;;;;;;;6.32;3.35;;;0.80;99.90;;;;;;5092822;28;20547;-73
2023/03/07 07:01:38;;;;;;;5.70;2.90;;;0.70;99.90;;;;;;5093065;28;20419;-72
2023/03/07 07:04:04;;;;;;;4.63;2.63;;;0.70;99.90;;;;;;5092755;28;20024;-73
2023/03/07 07:06:30;;;;;;;9.63;3.53;;;0.80;99.90;;;;;;5092578;28;20056;-73
2023/03/07 07:08:56;;;;;;;6.82;3.03;;;0.80;99.90;;;;;;5092044;28;20016;-73
2023/03/07 07:11:24;;;;;;;5.65;2.90;;;0.80;99.90;;;;;;5093289;28;20032;-73
2023/03/07 07:13:50;;;;;;;7.82;3.15;;;0.80;99.90;;;;;;5090863;28;20463;-74
2023/03/07 07:16:16;;;;;;;11.85;3.42;;;0.80;99.90;;;;;;5092578;28;20126;-73
2023/03/07 07:18:43;;;;;;;7.28;3.40;;;0.90;99.90;;;;;;5092522;28;20043;-73
2023/03/07 07:21:08;;;;;;;10.90;3.17;;;0.80;99.90;;;;;;5091854;28;20099;-73
2023/03/07 07:23:34;;;;;;;4.75;2.60;;;0.80;99.90;;;;;;5091948;28;20443;-73
2023/03/07 07:26:00;;;;;;;7.35;3.15;;;0.80;99.90;;;;;;5090634;28;20130;-73
2023/03/07 07:28:26;;;;;;;3.53;2.38;;;0.80;99.90;;;;;;5092488;28;20088;-73
2023/03/07 07:30:52;;;;;;;6.60;2.42;;;0.70;99.90;;;;;;5091224;28;20024;-75
2023/03/07 07:33:18;;;;;;;8.70;2.72;;;0.70;99.90;;;;;;5091706;28;20043;-73
2023/03/07 07:35:45;;;;;;;4.32;2.72;;;0.70;99.90;;;;;;5091716;28;20020;-73
2023/03/07 07:38:11;;;;;;;5.60;2.42;;;0.70;99.90;;;;;;5091317;28;20036;-73
2023/03/07 07:40:37;;;;;;;7.32;2.55;;;0.70;99.90;;;;;;5091804;28;20107;-73
2023/03/07 07:43:03;;;;;;;5.32;1.90;;;0.80;99.90;;;;;;5091672;28;20102;-73
2023/03/07 07:45:29;;;;;;;4.32;2.20;;;0.80;99.90;;;;;;5092144;28;20364;-73
2023/03/07 07:47:54;;;;;;;4.18;2.28;;;0.80;99.90;;;;;;5089429;28;20068;-73
2023/03/07 07:50:21;;;;;;;7.03;2.22;;;0.80;99.90;;;;;;5091735;28;20435;-72
2023/03/07 07:52:48;;;;;;;8.05;2.33;;;0.80;99.90;;;;;;5090341;28;20127;-73
2023/03/07 07:55:14;;;;;;;9.15;2.78;;;0.90;99.90;;;;;;5091064;28;20513;-75
2023/03/07 07:57:43;;;;;;;11.57;3.13;;;0.90;99.90;;;;;;5090029;28;20027;-73
2023/03/07 08:00:11;;;;;;;5.18;2.10;;;1.00;99.90;;;;;;5090802;28;20027;-73
2023/03/07 08:02:37;;;;;;;5.53;1.95;;;1.10;99.90;;;;;;5091433;28;20043;-74
2023/03/07 08:05:06;;;;;;;4.88;2.05;;;1.20;99.90;;;;;;5090781;28;20120;-74
2023/03/07 08:07:32;;;;;;;6.43;2.10;;;1.20;99.90;;;;;;5091579;28;20111;-74
2023/03/07 08:09:58;;;;;;;7.10;2.25;;;1.10;99.90;;;;;;5090683;28;20028;-74
2023/03/07 08:12:24;;;;;;;6.68;2.30;;;1.10;99.90;;;;;;5090722;28;20035;-74
2023/03/07 08:14:49;;;;;;;3.95;1.77;;;1.20;99.90;;;;;;5091260;28;20107;-74
2023/03/07 08:17:15;;;;;;;5.30;2.13;;;1.20;99.90;;;;;;5090050;28;20104;-74
2023/03/07 08:19:41;;;;;;;7.75;2.53;;;1.10;99.90;;;;;;5089761;28;20115;-73
2023/03/07 08:22:06;;;;;;;8.32;2.30;;;1.10;99.90;;;;;;5090631;28;20416;-74
2023/03/07 08:24:34;;;;;;;5.93;2.53;;;1.10;99.90;;;;;;5089611;28;20048;-72
2023/03/07 08:27:00;;;;;;;4.88;2.00;;;1.00;99.90;;;;;;5089043;28;20438;-73
2023/03/07 08:29:26;;;;;;;3.78;2.40;;;0.90;99.90;;;;;;5091154;28;20407;-74
2023/03/07 08:31:53;;;;;;;6.10;2.33;;;0.90;99.90;;;;;;5090977;28;20441;-76
2023/03/07 08:34:19;;;;;;;8.55;2.10;;;0.90;99.90;;;;;;5090678;28;20411;-73
2023/03/07 08:36:45;;;;;;;7.28;2.67;;;0.80;99.90;;;;;;5090747;28;20036;-74
2023/03/07 08:39:11;;;;;;;4.57;1.92;;;0.80;99.90;;;;;;5089985;28;20104;-73
2023/03/07 08:41:38;;;;;;;3.40;2.30;;;0.80;99.90;;;;;;5091086;28;20241;-73
2023/03/07 08:44:03;;;;;;;7.53;2.70;;;1.00;99.90;;;;;;5090193;28;20045;-74
2023/03/07 08:46:29;;;;;;;5.32;2.60;;;1.10;99.90;;;;;;5090563;28;20028;-74
2023/03/07 08:48:55;;;;;;;4.95;2.80;;;1.20;99.90;;;;;;5090042;28;20039;-75
2023/03/07 08:51:21;;;;;;;3.95;2.53;;;1.30;99.90;;;;;;5088889;28;20035;-72
2023/03/07 08:53:46;;;;;;;6.40;2.53;;;1.40;99.90;;;;;;5090877;28;20032;-73
2023/03/07 08:56:18;;;;;;;8.07;2.72;;;1.60;99.90;;;;;;5090141;28;20055;-74
2023/03/07 08:58:44;;;;;;;3.53;1.67;;;1.70;99.90;;;;;;5090893;28;20028;-74
2023/03/07 09:01:11;;;;;;;5.63;2.42;;;1.90;99.90;;;;;;5090117;28;20051;-73
2023/03/07 09:03:37;;;;;;;5.22;2.97;;;2.00;99.90;;;;;;5090631;28;20031;-73
2023/03/07 09:06:04;;;;;;;4.97;2.50;;;2.10;99.90;;;;;;5089660;28;20024;-72
2023/03/07 09:08:30;;;;;;;6.30;2.60;;;2.20;99.90;;;;;;5090220;28;20028;-74
2023/03/07 09:10:59;;;;;;;6.85;2.35;;;2.20;99.90;;;;;;5089805;28;20331;-76
2023/03/07 09:13:25;;;;;;;5.50;2.42;;;2.20;99.90;;;;;;5090815;28;20031;-73
2023/03/07 09:15:51;;;;;;;4.63;2.10;;;2.40;99.90;;;;;;5090568;28;20121;-73
2023/03/07 09:18:17;;;;;;;6.97;2.63;;;2.50;99.90;;;;;;5089903;28;20115;-73
2023/03/07 09:20:43;;;;;;;4.13;2.50;;;2.50;99.90;;;;;;5090509;28;20024;-74
2023/03/07 09:23:09;;;;;;;5.28;2.30;;;2.60;99.90;;;;;;5088218;28;20378;-73
2023/03/07 09:25:36;;;;;;;6.65;2.40;;;2.60;99.90;;;;;;5089900;28;20117;-73
2023/03/07 09:28:03;;;;;;;6.38;2.55;;;2.80;99.90;;;;;;5089638;28;20032;-74
2023/03/07 09:30:28;;;;;;;5.60;2.55;;;2.80;99.90;;;;;;5094157;28;20024;-73
2023/03/07 09:32:55;;;;;;;4.50;2.40;;;2.80;99.90;;;;;;5094299;28;20482;-73
2023/03/07 09:35:20;;;;;;;5.85;2.10;;;2.70;99.90;;;;;;5093776;28;20028;-73
2023/03/07 09:37:48;;;;;;;5.60;2.40;;;2.80;99.90;;;;;;5094087;28;20028;-74
2023/03/07 09:40:23;;;;;;;4.70;2.50;;;2.80;99.90;;;;;;5093487;28;20067;-73
2023/03/07 09:43:07;;;;;;;2.58;2.00;;;2.70;99.90;;;;;;5094007;28;20027;-73
2023/03/07 09:45:45;;;;;;;4.15;2.25;;;2.70;99.90;;;;;;5093540;28;20462;-73
2023/03/07 09:48:49;;;;;;;4.35;2.20;;;2.80;99.90;;;;;;5093190;28;20047;-73
2023/03/07 09:51:20;;;;;;;3.72;2.20;;;2.80;99.90;;;;;;5093130;28;20039;-72
2023/03/07 09:53:51;;;;;;;4.95;2.42;;;3.00;99.90;;;;;;5093729;28;20024;-72
2023/03/07 09:56:36;;;;;;;2.60;2.35;;;3.10;99.90;;;;;;5093496;28;20161;-72
2023/03/07 09:59:21;;;;;;;4.72;2.30;;;3.20;99.90;;;;;;5093383;28;20454;-73
2023/03/07 10:01:50;;;;;;;2.97;2.25;;;3.20;99.90;;;;;;5092689;28;20122;-73
2023/03/07 10:04:34;;;;;;;3.63;2.50;;;3.30;99.90;;;;;;5091916;28;20039;-73
2023/03/07 10:07:02;;;;;;;4.45;2.35;;;3.40;99.90;;;;;;5092804;28;20394;-74
2023/03/07 10:09:28;;;;;;;1.23;1.02;;;3.50;99.90;;;;;;5093951;28;20093;-73
2023/03/07 10:11:54;;;;;;;1.83;1.60;;;3.50;99.90;;;;;;5093553;28;20049;-75
2023/03/07 10:14:57;;;;;;;3.67;1.80;;;3.50;99.90;;;;;;5092792;28;20085;-74
2023/03/07 10:17:36;;;;;;;2.50;1.60;;;3.50;99.90;;;;;;5093008;28;20030;-73
2023/03/07 10:20:28;;;;;;;4.05;1.60;;;3.60;99.90;;;;;;5092442;28;20039;-73
2023/03/07 10:23:13;;;;;;;3.70;1.75;;;3.60;99.90;;;;;;5092476;28;20020;-73
2023/03/07 10:25:56;;;;;;;4.25;1.77;;;3.70;99.90;;;;;;5093085;28;20117;-73
2023/03/07 10:28:29;;;;;;;3.92;1.73;;;3.80;99.90;;;;;;5092264;28;20530;-74
2023/03/07 10:31:09;;;;;;;2.75;1.52;;;3.80;99.90;;;;;;5091496;28;20043;-74
2023/03/07 10:33:38;;;;;;;2.20;1.50;;;3.80;99.90;;;;;;5092683;28;20462;-73
2023/03/07 10:36:12;;;;;;;1.38;1.13;;;3.90;99.90;;;;;;5092094;28;20101;-73
2023/03/07 10:39:07;;;;;;;3.47;1.35;;;3.90;99.90;;;;;;5092239;28;20030;-75
2023/03/07 10:41:33;;;;;;;2.20;1.33;;;3.90;99.90;;;;;;5092323;28;20070;-74
2023/03/07 10:43:58;;;;;;;9.75;1.30;;;4.00;99.90;;;;;;5095299;28;20040;-77
2023/03/07 10:46:29;;;;;;;1.90;1.33;;;3.90;99.90;;;;;;5094240;28;20028;-74
2023/03/07 10:49:07;;;;;;;3.78;1.60;;;3.90;99.90;;;;;;5093329;28;20038;-73
2023/03/07 10:51:33;;;;;;;3.20;1.50;;;4.00;99.90;;;;;;5094180;28;20087;-74
2023/03/07 10:53:59;;;;;;;4.25;1.60;;;4.00;99.90;;;;;;5098504;28;20063;-76
2023/03/07 10:56:25;;;;;;;4.30;1.40;;;4.00;99.90;;;;;;5093370;28;20028;-75
2023/03/07 10:59:09;;;;;;;2.53;0.98;;;4.00;99.90;;;;;;5098256;28;20093;-73
2023/03/07 11:01:36;;;;;;;2.08;1.00;;;4.00;99.90;;;;;;5095002;28;20028;-72
2023/03/07 11:04:18;;;;;;;2.53;1.40;;;4.10;99.90;;;;;;5091717;28;20320;-73
2023/03/07 11:06:54;;;;;;;2.70;1.00;;;4.20;99.90;;;;;;5092313;28;20408;-73
2023/03/07 11:09:26;;;;;;;3.92;1.00;;;4.20;99.90;;;;;;5091568;28;20027;-73
2023/03/07 11:11:51;;;;;;;2.67;0.80;;;4.20;99.90;;;;;;5092091;28;20051;-74
2023/03/07 11:14:17;;;;;;;1.35;0.80;;;4.10;99.90;;;;;;5091863;28;20070;-74
2023/03/07 11:16:55;;;;;;;1.95;0.75;;;4.10;99.90;;;;;;5092312;28;20024;-74
2023/03/07 11:19:42;;;;;;;1.33;0.98;;;4.10;99.90;;;;;;5091699;28;20060;-74
2023/03/07 11:22:32;;;;;;;3.08;1.30;;;4.00;99.90;;;;;;5091979;28;20056;-74
2023/03/07 11:25:16;;;;;;;2.00;0.75;;;4.00;99.90;;;;;;5090881;28;20058;-75
2023/03/07 11:27:47;;;;;;;4.00;0.60;;;4.10;99.90;;;;;;5092285;28;20039;-74
2023/03/07 11:30:38;;;;;;;2.90;0.85;;;4.10;99.90;;;;;;5090032;28;20066;-75
2023/03/07 11:33:39;;;;;;;3.13;0.57;;;4.10;99.90;;;;;;5091665;28;20130;-76
2023/03/07 11:36:14;;;;;;;4.03;0.70;;;4.30;99.90;;;;;;5091895;28;20032;-75
2023/03/07 11:38:57;;;;;;;1.52;0.50;;;4.40;99.90;;;;;;5091889;28;20447;-75
2023/03/07 11:41:28;;;;;;;0.60;0.60;;;4.30;99.90;;;;;;5090918;28;20521;-75
2023/03/07 11:44:15;;;;;;;1.27;0.82;;;4.30;99.90;;;;;;5090616;28;20024;-75
2023/03/07 11:47:23;;;;;;;2.38;0.38;;;4.30;99.90;;;;;;5092024;28;20059;-73
2023/03/07 11:50:03;;;;;;;1.80;0.70;;;4.40;99.90;;;;;;5090243;28;20475;-74
2023/03/07 11:52:53;;;;;;;3.05;0.68;;;4.50;99.90;;;;;;5091278;28;20024;-74
2023/03/07 11:55:43;;;;;;;2.17;0.43;;;4.50;99.90;;;;;;5091459;28;20028;-75
2023/03/07 11:58:15;;;;;;;2.00;1.20;;;4.40;99.90;;;;;;5091042;28;20413;-75
2023/03/07 12:00:46;;;;;;;2.95;0.70;;;4.40;99.90;;;;;;5091348;28;20464;-74
2023/03/07 12:03:27;;;;;;;5.20;0.90;;;4.50;99.90;;;;;;5091085;28;20048;-75
2023/03/07 12:06:25;;;;;;;4.95;0.43;;;4.60;99.90;;;;;;5091650;28;20494;-75
2023/03/07 12:09:12;;;;;;;0.93;0.65;;;4.70;99.90;;;;;;5091613;28;20024;-74
2023/03/07 12:12:22;;;;;;;1.20;0.60;;;4.80;99.90;;;;;;5091000;28;20497;-75
2023/03/07 12:15:03;;;;;;;4.55;0.77;;;4.90;99.90;;;;;;5091635;28;20085;-73
2023/03/07 12:17:54;;;;;;;1.02;0.35;;;4.80;99.90;;;;;;5090632;28;20020;-74
2023/03/07 12:20:34;;;;;;;3.58;0.75;;;4.80;99.90;;;;;;5089058;28;20036;-75
2023/03/07 12:23:24;;;;;;;1.17;0.77;;;4.80;99.90;;;;;;5091230;28;20028;-75
2023/03/07 12:25:58;;;;;;;3.88;0.88;;;4.80;99.90;;;;;;5091664;28;20071;-75
2023/03/07 12:28:40;;;;;;;1.67;0.52;;;4.80;99.90;;;;;;5091056;28;20028;-74
2023/03/07 12:31:56;;;;;;;2.35;0.68;;;4.80;99.90;;;;;;5089284;28;20475;-76
2023/03/07 12:34:35;;;;;;;4.03;0.77;;;4.90;99.90;;;;;;5066507;28;20096;-75
2023/03/07 12:37:06;;;;;;;2.33;0.40;;;4.90;99.90;;;;;;5090776;28;20058;-74
2023/03/07 12:39:50;;;;;;;1.60;0.50;;;5.00;99.90;;;;;;5091307;28;20448;-75
2023/03/07 12:42:39;;;;;;;1.33;0.70;;;5.00;99.90;;;;;;5088862;28;20055;-75
2023/03/07 12:45:15;;;;;;;1.95;0.40;;;4.90;99.90;;;;;;5090790;28;20096;-77
2023/03/07 12:47:56;;;;;;;2.42;0.82;;;5.00;99.90;;;;;;5090707;28;20350;-74
2023/03/07 12:50:53;;;;;;;0.50;0.40;;;5.00;99.90;;;;;;5089783;28;20024;-74
2023/03/07 12:53:41;;;;;;;1.02;0.50;;;5.20;99.90;;;;;;5088891;28;20035;-75
2023/03/07 12:56:31;;;;;;;0.93;0.80;;;5.20;99.90;;;;;;5090136;28;20039;-78
2023/03/07 12:59:11;;;;;;;2.40;0.50;;;5.10;99.90;;;;;;5090592;28;20468;-75
2023/03/07 13:01:40;;;;;;;0.77;0.47;;;5.10;99.90;;;;;;5090884;28;20032;-75
2023/03/07 13:04:15;;;;;;;5.10;1.42;;;5.10;99.90;;;;;;5089988;28;20028;-77
2023/03/07 13:06:42;;;;;;;4.10;1.85;;;5.00;99.90;;;;;;5090362;28;20028;-75
2023/03/07 13:09:19;;;;;;;2.35;0.68;;;5.00;99.90;;;;;;5090110;28;20138;-79
2023/03/07 13:12:19;;;;;;;1.75;0.73;;;5.10;99.90;;;;;;5089724;28;20070;-74